createdAt,value
2018-05-11T00:04:23.042Z,15.41
2018-05-11T00:09:25.549Z,15.19
2018-05-11T00:14:28.005Z,15.21
2018-05-11T00:19:30.482Z,15.07
2018-05-11T00:24:33.071Z,15.05
2018-05-11T00:29:35.629Z,15.09
2018-05-11T00:34:38.177Z,14.94
2018-05-11T00:39:40.654Z,14.87
2018-05-11T00:44:46.212Z,14.95
2018-05-11T00:49:48.725Z,14.94
2018-05-11T00:54:51.233Z,14.89
2018-05-11T00:59:53.694Z,14.80
2018-05-11T01:04:56.143Z,14.78
2018-05-11T01:09:58.618Z,14.67
2018-05-11T01:15:01.133Z,14.73
2018-05-11T01:20:03.698Z,14.71
2018-05-11T01:25:06.303Z,14.62
2018-05-11T01:30:09.452Z,14.63
2018-05-11T01:35:11.981Z,14.49
2018-05-11T01:40:15.055Z,14.62
2018-05-11T01:45:18.292Z,14.53
2018-05-11T01:50:20.768Z,14.54
2018-05-11T01:55:24.419Z,14.49
2018-05-11T02:00:26.890Z,14.42
2018-05-11T02:05:29.374Z,14.39
2018-05-11T02:10:31.949Z,14.50
2018-05-11T02:15:34.493Z,14.40
2018-05-11T02:20:37.055Z,14.31
2018-05-11T02:25:39.638Z,14.26
2018-05-11T02:30:42.156Z,14.27
2018-05-11T02:35:44.632Z,14.17
2018-05-11T02:40:47.121Z,14.19
2018-05-11T02:45:49.600Z,14.09
2018-05-11T02:50:52.365Z,13.91
2018-05-11T02:55:54.857Z,13.89
2018-05-11T03:00:57.355Z,13.99
2018-05-11T03:05:59.851Z,13.96
2018-05-11T03:11:02.385Z,13.82
2018-05-11T03:16:05.048Z,13.66
2018-05-11T03:21:08.140Z,13.82
2018-05-11T03:26:10.708Z,13.83
2018-05-11T03:31:13.209Z,13.74
2018-05-11T03:36:15.686Z,13.64
2018-05-11T03:41:18.162Z,13.63
2018-05-11T03:46:20.619Z,13.50
2018-05-11T03:51:23.109Z,13.47
2018-05-11T03:56:25.580Z,13.33
2018-05-11T04:01:39.808Z,13.47
2018-05-11T04:06:54.102Z,13.44
2018-05-11T04:11:57.194Z,13.43
2018-05-11T04:16:59.700Z,13.31
2018-05-11T04:22:02.252Z,13.14
2018-05-11T04:27:05.094Z,13.19
2018-05-11T04:32:07.653Z,13.24
2018-05-11T04:37:10.201Z,13.28
2018-05-11T04:42:12.765Z,13.41
2018-05-11T04:47:15.244Z,13.33
2018-05-11T04:52:17.760Z,13.49
2018-05-11T04:57:20.278Z,13.57
2018-05-11T05:02:22.757Z,13.79
2018-05-11T05:07:25.233Z,13.74
2018-05-11T05:12:27.855Z,13.90
2018-05-11T05:17:31.532Z,14.01
2018-05-11T05:22:37.134Z,13.87
2018-05-11T05:27:39.702Z,13.54
2018-05-11T05:32:42.217Z,13.71
2018-05-11T05:37:44.693Z,14.13
2018-05-11T05:42:47.237Z,14.17
2018-05-11T05:47:49.731Z,14.13
2018-05-11T05:52:52.210Z,13.94
2018-05-11T05:57:54.677Z,14.22
2018-05-11T06:02:57.155Z,14.13
2018-05-11T06:07:59.644Z,14.17
2018-05-11T06:13:02.257Z,13.97
2018-05-11T06:18:04.867Z,14.18
2018-05-11T06:23:07.431Z,14.19
2018-05-11T06:28:09.935Z,14.09
2018-05-11T06:33:12.409Z,13.94
2018-05-11T06:38:14.868Z,13.77
2018-05-11T06:43:17.383Z,14.15
2018-05-11T06:48:19.862Z,13.92
2018-05-11T06:53:22.355Z,14.01
2018-05-11T06:58:24.833Z,14.30
2018-05-11T07:03:27.291Z,14.33
2018-05-11T07:08:29.751Z,14.09
2018-05-11T07:13:32.325Z,14.22
2018-05-11T07:18:34.857Z,14.22
2018-05-11T07:23:37.424Z,14.07
2018-05-11T07:28:39.943Z,14.25
2018-05-11T07:33:42.430Z,14.06
2018-05-11T07:38:44.915Z,14.51
2018-05-11T07:43:47.405Z,14.77
2018-05-11T07:48:49.869Z,14.84
2018-05-11T07:53:52.391Z,14.80
2018-05-11T07:58:54.866Z,14.93
2018-05-11T08:03:57.362Z,15.40
2018-05-11T08:08:59.865Z,15.34
2018-05-11T08:14:02.347Z,15.54
2018-05-11T08:19:05.964Z,15.53
2018-05-11T08:24:08.461Z,16.01
2018-05-11T08:29:11.867Z,16.43
2018-05-11T08:34:14.355Z,16.76
2018-05-11T08:39:16.865Z,16.52
2018-05-11T08:44:19.351Z,16.51
2018-05-11T08:49:21.832Z,16.65
2018-05-11T08:54:24.322Z,16.65
2018-05-11T08:59:26.796Z,16.40
2018-05-11T09:04:29.270Z,16.42
2018-05-11T09:09:44.627Z,16.57
2018-05-11T09:14:49.033Z,17.17
2018-05-11T09:19:51.557Z,17.92
2018-05-11T09:24:54.027Z,17.55
2018-05-11T09:29:56.520Z,16.64
2018-05-11T09:34:59.010Z,16.87
2018-05-11T09:40:02.345Z,17.18
2018-05-11T09:45:06.064Z,17.00
2018-05-11T09:50:08.587Z,16.80
2018-05-11T09:55:11.047Z,16.86
2018-05-11T10:00:13.555Z,17.89
2018-05-11T10:05:16.049Z,18.33
2018-05-11T10:10:18.842Z,18.61
2018-05-11T10:15:21.339Z,18.72
2018-05-11T10:20:23.817Z,18.37
2018-05-11T10:25:26.305Z,18.39
2018-05-11T10:30:28.790Z,18.67
2018-05-11T10:35:31.277Z,18.62
2018-05-11T10:40:35.169Z,17.84
2018-05-11T10:45:37.732Z,18.16
2018-05-11T10:50:40.468Z,18.31
2018-05-11T10:55:43.007Z,18.63
2018-05-11T11:00:45.488Z,19.00
2018-05-11T11:05:47.975Z,18.63
2018-05-11T11:10:50.439Z,20.05
2018-05-11T11:15:52.898Z,20.31
2018-05-11T11:20:55.433Z,20.43
2018-05-11T11:25:57.922Z,20.03
2018-05-11T11:31:00.965Z,18.93
2018-05-11T11:36:03.500Z,19.37
2018-05-11T11:41:06.029Z,19.32
2018-05-11T11:46:08.543Z,19.49
2018-05-11T11:51:11.021Z,19.45
2018-05-11T11:56:13.515Z,19.38
2018-05-11T12:01:16.011Z,19.72
2018-05-11T12:06:18.476Z,19.66
2018-05-11T12:11:20.990Z,19.71
2018-05-11T12:16:23.459Z,19.34
2018-05-11T12:21:25.935Z,19.20
2018-05-11T12:26:28.479Z,19.34
2018-05-11T12:31:31.799Z,19.17
2018-05-11T12:36:34.455Z,19.06
2018-05-11T12:41:36.950Z,19.29
2018-05-11T12:46:39.456Z,19.41
2018-05-11T12:51:41.952Z,19.66
2018-05-11T12:56:44.425Z,19.93
2018-05-11T13:01:46.914Z,19.71
2018-05-11T13:06:49.371Z,19.50
2018-05-11T13:11:51.833Z,19.23
2018-05-11T13:16:54.318Z,19.35
2018-05-11T13:21:56.833Z,18.91
2018-05-11T13:26:59.340Z,18.41
2018-05-11T13:32:01.868Z,18.85
2018-05-11T13:37:04.394Z,18.76
2018-05-11T13:42:07.002Z,18.78
2018-05-11T13:47:09.477Z,18.77
2018-05-11T13:52:12.036Z,18.50
2018-05-11T13:57:14.541Z,18.45
2018-05-11T14:02:17.005Z,18.57
2018-05-11T14:07:19.469Z,18.35
2018-05-11T14:12:21.944Z,18.54
2018-05-11T14:17:24.400Z,18.54
2018-05-11T14:22:26.899Z,18.73
2018-05-11T14:27:29.389Z,18.24
2018-05-11T14:32:31.932Z,18.77
2018-05-11T14:37:34.473Z,19.18
2018-05-11T14:42:36.997Z,19.50
2018-05-11T14:47:39.493Z,19.43
2018-05-11T14:52:42.142Z,18.51
2018-05-11T14:57:44.660Z,18.81
2018-05-11T15:02:47.281Z,19.02
2018-05-11T15:07:49.795Z,19.14
2018-05-11T15:12:52.295Z,19.42
2018-05-11T15:17:58.885Z,19.03
2018-05-11T15:23:01.434Z,18.59
2018-05-11T15:28:04.042Z,18.34
2018-05-11T15:38:12.494Z,18.51
2018-05-11T15:43:28.005Z,19.08
2018-05-11T15:52:53.012Z,19.11
2018-05-11T15:57:56.124Z,19.15
2018-05-11T16:02:59.310Z,19.12
2018-05-11T16:10:07.387Z,18.75
2018-05-11T16:15:10.543Z,19.10
2018-05-11T16:20:13.682Z,19.55
2018-05-11T16:25:16.832Z,21.04
2018-05-11T16:30:19.959Z,21.01
2018-05-11T16:35:23.096Z,20.19
2018-05-11T16:40:26.429Z,20.19
2018-05-11T16:55:36.746Z,20.20
2018-05-11T17:00:39.254Z,19.37
2018-05-11T17:05:41.773Z,18.92
2018-05-11T17:10:44.279Z,18.87
2018-05-11T17:15:46.774Z,18.65
2018-05-11T17:20:49.302Z,18.88
2018-05-11T17:25:51.790Z,18.46
2018-05-11T17:30:54.276Z,17.93
2018-05-11T17:35:56.767Z,17.99
2018-05-11T17:40:59.264Z,17.75
2018-05-11T17:46:01.806Z,17.61
2018-05-11T17:51:04.482Z,17.32
2018-05-11T17:56:06.946Z,17.13
2018-05-11T18:01:09.533Z,16.94
2018-05-11T18:06:12.025Z,16.75
2018-05-11T18:11:14.544Z,16.60
2018-05-11T18:16:17.742Z,16.40
2018-05-11T18:21:20.192Z,16.21
2018-05-11T18:26:22.688Z,16.00
2018-05-11T18:31:25.326Z,15.68
2018-05-11T18:36:27.932Z,15.37
2018-05-11T18:41:30.497Z,15.08
2018-05-11T18:46:33.195Z,14.89
2018-05-11T18:51:36.049Z,14.76
2018-05-11T18:56:38.883Z,14.37
2018-05-11T19:01:42.155Z,14.24
2018-05-11T19:06:44.990Z,14.01
2018-05-11T19:11:47.990Z,13.84
2018-05-11T19:16:51.343Z,13.74
2018-05-11T19:21:53.900Z,13.52
2018-05-11T19:26:56.404Z,13.28
2018-05-11T19:31:59.018Z,13.19
2018-05-11T19:37:01.886Z,13.04
2018-05-11T19:42:05.090Z,13.04
2018-05-11T19:47:08.816Z,12.90
2018-05-11T19:52:11.353Z,12.76
2018-05-11T19:57:14.362Z,12.60
2018-05-11T20:02:16.854Z,12.48
2018-05-11T20:07:21.149Z,12.26
2018-05-11T20:12:24.136Z,12.09
2018-05-11T20:17:26.932Z,11.97
2018-05-11T20:22:29.759Z,11.92
2018-05-11T20:27:32.455Z,11.91
2018-05-11T20:32:35.316Z,11.78
2018-05-11T20:37:40.316Z,11.89
2018-05-11T20:42:42.925Z,11.86
2018-05-11T20:47:45.410Z,11.68
2018-05-11T20:52:47.983Z,11.50
2018-05-11T20:57:50.547Z,11.32
2018-05-11T21:02:53.053Z,11.34
2018-05-11T21:07:56.595Z,11.09
2018-05-11T21:12:59.108Z,10.95
2018-05-11T21:18:01.621Z,10.92
2018-05-11T21:23:04.111Z,11.03
2018-05-11T21:28:06.623Z,10.87
2018-05-11T21:33:09.140Z,10.71
2018-05-11T21:38:11.649Z,10.66
2018-05-11T21:43:14.124Z,10.57
2018-05-11T21:48:16.647Z,10.50
2018-05-11T21:53:19.152Z,10.46
2018-05-11T21:58:21.775Z,10.32
2018-05-11T22:03:26.025Z,10.28
2018-05-11T22:08:28.753Z,10.16
2018-05-11T22:13:31.877Z,10.07
2018-05-11T22:18:34.407Z,10.00
2018-05-11T22:23:37.308Z,9.88
2018-05-11T22:28:39.878Z,9.88
2018-05-11T22:33:42.363Z,9.70
2018-05-11T22:38:44.835Z,9.77
2018-05-11T22:43:47.345Z,9.67
2018-05-11T22:48:49.836Z,9.59
2018-05-11T22:53:52.553Z,9.46
2018-05-11T22:58:55.802Z,9.40
2018-05-11T23:03:58.278Z,9.31
2018-05-11T23:09:07.536Z,9.17
2018-05-11T23:14:10.063Z,9.18
2018-05-11T23:19:12.532Z,9.15
2018-05-11T23:24:15.018Z,9.06
2018-05-11T23:29:17.495Z,9.03
2018-05-11T23:34:20.011Z,9.02
2018-05-11T23:39:22.509Z,8.93
2018-05-11T23:44:24.986Z,8.82
2018-05-11T23:49:27.455Z,8.70
2018-05-11T23:54:29.962Z,8.67
2018-05-11T23:59:32.477Z,8.63
